Time;durP1;ratioP1;P1;durP2;ratioP2;P2;SDS_P1;SDS_P2;PMS_P1;PMS_P2;Temp;Humidity;BMP_temperature;BMP_pressure;BME280_temperature;BME280_humidity;BME280_pressure;Samples;Min_cycle;Max_cycle;Signal;HPM_P1;HPM_P2
2021/07/27 00:00:57;;;;;;;17.92;8.88;;;;;;;;;;4989751;28;21927;-55
2021/07/27 00:03:25;;;;;;;15.02;8.95;;;;;;;;;;4988990;28;20034;-55
2021/07/27 00:05:52;;;;;;;19.92;9.13;;;;;;;;;;4990417;28;20505;-55
2021/07/27 00:08:18;;;;;;;16.92;8.93;;;;;;;;;;4989343;28;20049;-56
2021/07/27 00:10:44;;;;;;;15.15;8.48;;;;;;;;;;4992395;28;20048;-56
2021/07/27 00:13:10;;;;;;;14.43;8.55;;;;;;;;;;4991628;28;20091;-55
2021/07/27 00:15:36;;;;;;;17.73;9.50;;;;;;;;;;4988909;28;20395;-56
2021/07/27 00:18:05;;;;;;;21.60;9.25;;;;;;;;;;4989854;28;20056;-56
2021/07/27 00:20:31;;;;;;;19.73;9.50;;;;;;;;;;4988875;28;20046;-53
2021/07/27 00:22:57;;;;;;;19.33;9.25;;;;;;;;;;4990975;28;20049;-56
2021/07/27 00:25:22;;;;;;;19.00;9.20;;;;;;;;;;4988956;28;20656;-56
2021/07/27 00:27:48;;;;;;;19.27;8.85;;;;;;;;;;5001144;28;20045;-56
2021/07/27 00:30:14;;;;;;;16.38;8.15;;;;;;;;;;4991745;28;20926;-56
2021/07/27 00:32:41;;;;;;;18.40;9.30;;;;;;;;;;4989785;28;20117;-56
2021/07/27 00:35:07;;;;;;;14.82;9.40;;;;;;;;;;4990543;28;20030;-57
2021/07/27 00:37:34;;;;;;;14.27;9.30;;;;;;;;;;4989754;28;20488;-55
2021/07/27 00:40:03;;;;;;;18.90;10.13;;;;;;;;;;4990610;28;20060;-55
2021/07/27 00:42:31;;;;;;;20.20;9.57;;;;;;;;;;4987173;28;20407;-55
2021/07/27 00:44:57;;;;;;;19.40;9.30;;;;;;;;;;4990070;28;20049;-56
2021/07/27 00:47:23;;;;;;;22.17;10.32;;;;;;;;;;4988566;28;20058;-56
2021/07/27 00:49:49;;;;;;;15.70;9.40;;;;;;;;;;4991700;28;20564;-55
2021/07/27 00:52:14;;;;;;;18.70;9.77;;;;;;;;;;4991062;28;20142;-55
2021/07/27 00:54:40;;;;;;;22.83;10.85;;;;;;;;;;4988892;28;20046;-55
2021/07/27 00:57:06;;;;;;;17.02;9.80;;;;;;;;;;4989531;28;20129;-55
2021/07/27 00:59:32;;;;;;;22.15;9.60;;;;;;;;;;4987616;28;20046;-56
2021/07/27 01:01:58;;;;;;;19.98;10.13;;;;;;;;;;4989791;28;20057;-54
2021/07/27 01:04:24;;;;;;;19.23;10.68;;;;;;;;;;4988943;28;20670;-56
2021/07/27 01:06:50;;;;;;;17.08;10.07;;;;;;;;;;4989190;28;20061;-56
2021/07/27 01:09:16;;;;;;;18.23;10.55;;;;;;;;;;4990143;28;20042;-55
2021/07/27 01:11:43;;;;;;;15.73;10.13;;;;;;;;;;4991120;28;20050;-57
2021/07/27 01:14:12;;;;;;;17.33;9.70;;;;;;;;;;4990763;28;20103;-56
2021/07/27 01:16:38;;;;;;;20.65;11.18;;;;;;;;;;4988898;28;21999;-56
2021/07/27 01:41:00;;;;;;;16.52;9.23;;;;;;;;;;4987620;28;20054;-55
2021/07/27 01:43:30;;;;;;;14.38;8.95;;;;;;;;;;4988239;28;20121;-55
2021/07/27 01:45:56;;;;;;;17.73;8.35;;;;;;;;;;4990079;28;20049;-54
2021/07/27 01:48:29;;;;;;;14.38;8.55;;;;;;;;;;4990499;28;20453;-55
2021/07/27 01:50:58;;;;;;;19.33;9.82;;;;;;;;;;4993765;28;20049;-56
2021/07/27 01:53:32;;;;;;;14.43;8.32;;;;;;;;;;4993419;28;20038;-56
2021/07/27 01:55:58;;;;;;;16.48;8.48;;;;;;;;;;4992472;28;20411;-56
2021/07/27 01:58:24;;;;;;;16.17;8.80;;;;;;;;;;4991604;28;20041;-55
2021/07/27 02:00:50;;;;;;;16.73;8.80;;;;;;;;;;4992236;28;20042;-55
2021/07/27 02:03:16;;;;;;;14.25;8.48;;;;;;;;;;4990490;28;20041;-56
2021/07/27 02:05:43;;;;;;;18.17;8.93;;;;;;;;;;4991577;28;20132;-53
2021/07/27 02:08:09;;;;;;;20.55;9.70;;;;;;;;;;4991619;28;20100;-55
2021/07/27 02:10:35;;;;;;;16.25;8.98;;;;;;;;;;4992055;28;20046;-55
2021/07/27 02:13:12;;;;;;;21.85;9.77;;;;;;;;;;4991366;28;20167;-56
2021/07/27 02:15:38;;;;;;;18.73;10.02;;;;;;;;;;4992214;28;20413;-56
2021/07/27 02:18:04;;;;;;;20.38;9.40;;;;;;;;;;4991978;28;20034;-56
2021/07/27 02:20:30;;;;;;;19.90;9.38;;;;;;;;;;4991106;28;20043;-56
2021/07/27 02:22:56;;;;;;;16.67;8.85;;;;;;;;;;4992688;28;20806;-57
2021/07/27 02:25:21;;;;;;;21.40;9.30;;;;;;;;;;4991092;28;20034;-56
2021/07/27 02:27:47;;;;;;;16.98;9.60;;;;;;;;;;4991139;28;20092;-57
2021/07/27 02:30:14;;;;;;;15.95;9.50;;;;;;;;;;4998544;28;20134;-56
2021/07/27 02:32:39;;;;;;;14.50;9.18;;;;;;;;;;4991615;28;20446;-57
2021/07/27 02:35:06;;;;;;;14.25;9.00;;;;;;;;;;5002984;28;20135;-56
2021/07/27 02:37:33;;;;;;;21.63;10.13;;;;;;;;;;4991125;28;20042;-57
2021/07/27 02:39:59;;;;;;;16.05;8.75;;;;;;;;;;4991977;28;20459;-58
2021/07/27 02:42:26;;;;;;;16.45;9.13;;;;;;;;;;4990645;28;20050;-55
2021/07/27 02:44:51;;;;;;;17.17;9.27;;;;;;;;;;4991063;28;20104;-58
2021/07/27 02:47:17;;;;;;;19.95;9.27;;;;;;;;;;4992573;28;20170;-53
2021/07/27 02:49:43;;;;;;;20.98;9.07;;;;;;;;;;4989804;28;20062;-56
2021/07/27 02:52:09;;;;;;;18.27;8.52;;;;;;;;;;4991254;28;20054;-55
2021/07/27 02:54:35;;;;;;;18.08;9.63;;;;;;;;;;4988698;28;20041;-55
2021/07/27 02:57:01;;;;;;;19.05;9.50;;;;;;;;;;5005362;28;20034;-56
2021/07/27 02:59:27;;;;;;;18.27;9.48;;;;;;;;;;4989852;28;20108;-57
2021/07/27 03:01:53;;;;;;;22.35;10.23;;;;;;;;;;5005260;28;20065;-56
2021/07/27 03:04:19;;;;;;;21.50;10.32;;;;;;;;;;4989505;28;20049;-57
2021/07/27 03:06:48;;;;;;;20.77;9.15;;;;;;;;;;4991354;28;20147;-55
2021/07/27 03:09:23;;;;;;;20.92;10.10;;;;;;;;;;4991728;28;20521;-57
2021/07/27 03:11:50;;;;;;;18.58;9.10;;;;;;;;;;4991150;28;20050;-57
2021/07/27 03:14:16;;;;;;;20.05;9.75;;;;;;;;;;4990339;28;20050;-56
2021/07/27 03:16:42;;;;;;;18.15;9.13;;;;;;;;;;4982300;28;20030;-56
2021/07/27 03:19:07;;;;;;;20.98;9.32;;;;;;;;;;4990467;28;20049;-56
2021/07/27 03:21:33;;;;;;;17.35;9.70;;;;;;;;;;4990394;28;20594;-56
2021/07/27 03:23:59;;;;;;;17.65;9.00;;;;;;;;;;4991046;28;20125;-54
2021/07/27 03:26:25;;;;;;;21.50;9.75;;;;;;;;;;4990298;28;20721;-54
2021/07/27 03:28:51;;;;;;;26.58;9.35;;;;;;;;;;4991780;28;20039;-58
2021/07/27 03:31:17;;;;;;;17.80;9.27;;;;;;;;;;4993490;28;20511;-56
2021/07/27 03:33:43;;;;;;;22.48;9.48;;;;;;;;;;4989467;28;20113;-56
2021/07/27 03:36:09;;;;;;;30.85;10.85;;;;;;;;;;4990968;28;20038;-56
2021/07/27 03:38:38;;;;;;;20.52;9.90;;;;;;;;;;4989216;28;20055;-57
2021/07/27 03:41:18;;;;;;;19.75;9.10;;;;;;;;;;4989270;28;20054;-58
2021/07/27 03:43:54;;;;;;;22.67;9.93;;;;;;;;;;4974082;28;20040;-57
2021/07/27 03:46:24;;;;;;;24.50;10.55;;;;;;;;;;4984485;28;20061;-57
2021/07/27 03:48:55;;;;;;;26.17;10.38;;;;;;;;;;4996722;28;20042;-56
2021/07/27 03:51:30;;;;;;;28.08;10.68;;;;;;;;;;5002459;28;20313;-57
2021/07/27 03:54:07;;;;;;;24.58;9.25;;;;;;;;;;4998019;28;20038;-57
2021/07/27 03:56:46;;;;;;;24.67;10.43;;;;;;;;;;5005473;28;20034;-55
2021/07/27 03:59:31;;;;;;;27.08;9.95;;;;;;;;;;5010613;28;20042;-57
2021/07/27 04:06:17;;;;;;;21.63;9.63;;;;;;;;;;4841771;29;20048;-59
2021/07/27 04:08:43;;;;;;;18.27;9.55;;;;;;;;;;4812306;29;21679;-59
2021/07/27 04:11:46;;;;;;;19.65;9.88;;;;;;;;;;4855581;29;20041;-60
2021/07/27 04:17:07;;;;;;;16.98;8.32;;;;;;;;;;4883955;28;20222;-59
2021/07/27 04:19:42;;;;;;;18.02;8.70;;;;;;;;;;4896872;29;20044;-55
2021/07/27 04:22:08;;;;;;;24.02;9.52;;;;;;;;;;4894701;29;20100;-55
2021/07/27 04:24:33;;;;;;;17.92;9.70;;;;;;;;;;4890815;29;20100;-55
2021/07/27 04:26:59;;;;;;;18.95;8.88;;;;;;;;;;4893507;29;20718;-58
2021/07/27 04:29:25;;;;;;;20.88;9.73;;;;;;;;;;4895770;29;20453;-56
2021/07/27 04:31:51;;;;;;;24.10;10.65;;;;;;;;;;4894376;29;20052;-53
2021/07/27 04:34:17;;;;;;;18.42;9.65;;;;;;;;;;4892603;29;20394;-56
2021/07/27 04:36:49;;;;;;;25.55;9.90;;;;;;;;;;4891577;29;20096;-56
2021/07/27 04:39:15;;;;;;;17.88;9.43;;;;;;;;;;4898497;29;20047;-57
2021/07/27 04:41:41;;;;;;;27.42;10.15;;;;;;;;;;4911511;28;20063;-58
2021/07/27 04:44:07;;;;;;;19.00;9.32;;;;;;;;;;4926681;28;20043;-57
2021/07/27 04:46:34;;;;;;;17.92;9.65;;;;;;;;;;4949494;28;20141;-57
2021/07/27 04:49:00;;;;;;;18.58;9.48;;;;;;;;;;4950799;28;20122;-55
2021/07/27 04:51:26;;;;;;;17.52;9.02;;;;;;;;;;4934495;28;20043;-57
2021/07/27 04:53:58;;;;;;;16.95;9.48;;;;;;;;;;4950424;28;20042;-58
2021/07/27 04:56:24;;;;;;;18.27;9.68;;;;;;;;;;4950494;28;20039;-57
2021/07/27 04:58:49;;;;;;;17.08;9.05;;;;;;;;;;4950695;28;20046;-57
2021/07/27 05:01:15;;;;;;;20.58;10.40;;;;;;;;;;4951165;28;20062;-56
2021/07/27 05:03:42;;;;;;;17.85;9.50;;;;;;;;;;4951500;28;20044;-57
2021/07/27 05:06:08;;;;;;;24.08;9.77;;;;;;;;;;4951275;28;20053;-56
2021/07/27 05:08:34;;;;;;;20.60;9.48;;;;;;;;;;4951415;28;20046;-57
2021/07/27 05:11:01;;;;;;;19.52;9.15;;;;;;;;;;4949943;28;20288;-57
2021/07/27 05:13:27;;;;;;;24.50;10.38;;;;;;;;;;4950099;28;20035;-57
2021/07/27 05:15:53;;;;;;;20.98;10.30;;;;;;;;;;4950029;28;20152;-56
2021/07/27 05:18:22;;;;;;;17.48;9.77;;;;;;;;;;4949159;28;20039;-56
2021/07/27 05:20:48;;;;;;;19.10;10.13;;;;;;;;;;4952624;28;20054;-58
2021/07/27 05:23:17;;;;;;;18.42;10.00;;;;;;;;;;4954085;28;20393;-57
2021/07/27 05:25:43;;;;;;;16.90;9.50;;;;;;;;;;4952752;28;20062;-54
2021/07/27 05:28:09;;;;;;;20.48;10.52;;;;;;;;;;4953984;28;20038;-56
2021/07/27 05:30:35;;;;;;;17.20;9.93;;;;;;;;;;4952760;28;20043;-57
2021/07/27 05:33:07;;;;;;;18.30;9.82;;;;;;;;;;4952462;28;20043;-58
2021/07/27 05:35:36;;;;;;;19.05;9.98;;;;;;;;;;4953213;28;20031;-58
2021/07/27 05:38:03;;;;;;;19.98;10.05;;;;;;;;;;4951675;28;20035;-57
2021/07/27 05:40:30;;;;;;;21.77;10.05;;;;;;;;;;4953071;28;20051;-57
2021/07/27 05:42:56;;;;;;;18.95;10.48;;;;;;;;;;4952332;28;20039;-56
2021/07/27 05:45:25;;;;;;;17.30;10.10;;;;;;;;;;4948954;28;20051;-56
2021/07/27 05:47:52;;;;;;;21.02;9.57;;;;;;;;;;4955169;28;20096;-57
2021/07/27 05:50:19;;;;;;;21.38;11.20;;;;;;;;;;4952726;28;20035;-58
2021/07/27 05:52:45;;;;;;;18.75;10.13;;;;;;;;;;4916518;29;20036;-57
2021/07/27 05:55:11;;;;;;;16.58;9.75;;;;;;;;;;4917976;29;20051;-58
2021/07/27 05:57:37;;;;;;;16.80;9.95;;;;;;;;;;4916186;28;20047;-57
2021/07/27 06:00:04;;;;;;;20.88;9.85;;;;;;;;;;4916911;29;20052;-57
2021/07/27 06:02:30;;;;;;;17.40;9.93;;;;;;;;;;4915460;29;20123;-56
2021/07/27 06:04:56;;;;;;;16.98;9.57;;;;;;;;;;4917201;29;20046;-56
2021/07/27 06:07:22;;;;;;;19.95;10.38;;;;;;;;;;4914538;29;20087;-57
2021/07/27 06:09:48;;;;;;;21.70;10.20;;;;;;;;;;4917699;28;20130;-58
2021/07/27 06:12:16;;;;;;;18.60;9.73;;;;;;;;;;4914162;28;20590;-57
2021/07/27 06:14:42;;;;;;;18.80;9.98;;;;;;;;;;4915867;28;20043;-57
2021/07/27 06:17:12;;;;;;;16.77;9.60;;;;;;;;;;4916884;28;20627;-58
2021/07/27 06:19:38;;;;;;;22.60;10.68;;;;;;;;;;4896581;29;20692;-56
2021/07/27 06:22:03;;;;;;;17.35;9.35;;;;;;;;;;4918210;29;20051;-58
2021/07/27 06:24:29;;;;;;;24.42;10.27;;;;;;;;;;4918195;29;20151;-57
2021/07/27 06:26:55;;;;;;;27.30;10.77;;;;;;;;;;4915926;29;20144;-58
2021/07/27 06:29:21;;;;;;;19.77;9.80;;;;;;;;;;4921033;28;20329;-58
2021/07/27 06:31:47;;;;;;;19.42;9.35;;;;;;;;;;4954072;28;20031;-55
2021/07/27 06:34:12;;;;;;;20.98;10.10;;;;;;;;;;4965511;28;20050;-59
2021/07/27 06:36:38;;;;;;;20.35;9.93;;;;;;;;;;4977568;28;20053;-58
2021/07/27 06:39:04;;;;;;;21.83;10.40;;;;;;;;;;4974905;28;20098;-57
2021/07/27 06:41:30;;;;;;;29.58;10.73;;;;;;;;;;4978393;28;20055;-59
2021/07/27 06:43:57;;;;;;;24.35;10.18;;;;;;;;;;4979063;28;20043;-58
2021/07/27 06:46:23;;;;;;;19.98;10.38;;;;;;;;;;4963092;28;20559;-59
2021/07/27 06:48:49;;;;;;;26.13;10.80;;;;;;;;;;4960114;28;20239;-59
2021/07/27 06:51:15;;;;;;;21.52;10.13;;;;;;;;;;4957872;28;20047;-58
2021/07/27 06:53:42;;;;;;;19.23;10.38;;;;;;;;;;4952382;28;20554;-58
2021/07/27 06:56:08;;;;;;;20.58;10.00;;;;;;;;;;4954673;28;20046;-58
2021/07/27 06:58:34;;;;;;;20.00;10.80;;;;;;;;;;4953763;28;20127;-58
2021/07/27 07:01:10;;;;;;;19.70;10.27;;;;;;;;;;4952795;28;20050;-56
2021/07/27 07:03:42;;;;;;;19.50;10.30;;;;;;;;;;4950979;28;20087;-59
2021/07/27 07:06:09;;;;;;;21.48;10.27;;;;;;;;;;4952156;28;22019;-59
2021/07/27 07:08:35;;;;;;;25.27;11.35;;;;;;;;;;4950155;28;20054;-58
2021/07/27 07:11:02;;;;;;;24.33;10.52;;;;;;;;;;4949649;28;20039;-59
2021/07/27 07:13:28;;;;;;;18.75;9.70;;;;;;;;;;4951887;28;20046;-58
2021/07/27 07:15:54;;;;;;;21.23;10.77;;;;;;;;;;4950669;28;20102;-57
2021/07/27 07:18:20;;;;;;;19.92;10.82;;;;;;;;;;4951612;28;20432;-58
2021/07/27 07:20:46;;;;;;;21.08;10.82;;;;;;;;;;4952351;28;20050;-59
2021/07/27 07:23:12;;;;;;;17.63;9.13;;;;;;;;;;4950757;28;20039;-59
2021/07/27 07:25:46;;;;;;;18.20;10.80;;;;;;;;;;4951312;28;20189;-58
2021/07/27 07:28:12;;;;;;;21.67;10.88;;;;;;;;;;4951806;28;20038;-58
2021/07/27 07:30:38;;;;;;;25.92;10.88;;;;;;;;;;4949774;28;20468;-59
2021/07/27 07:33:04;;;;;;;23.05;10.45;;;;;;;;;;4950339;28;20142;-59
2021/07/27 07:35:31;;;;;;;21.75;10.48;;;;;;;;;;4951283;28;20056;-59
2021/07/27 07:37:57;;;;;;;18.90;9.95;;;;;;;;;;4986707;28;20053;-59
2021/07/27 07:40:23;;;;;;;22.88;9.60;;;;;;;;;;4988406;28;20041;-59
2021/07/27 07:42:48;;;;;;;16.33;9.93;;;;;;;;;;4989902;28;20485;-59
2021/07/27 07:45:14;;;;;;;24.30;11.00;;;;;;;;;;4991152;28;20180;-59
2021/07/27 07:47:43;;;;;;;21.95;10.88;;;;;;;;;;5003723;28;20053;-59
2021/07/27 07:50:10;;;;;;;23.25;11.18;;;;;;;;;;4989753;28;20551;-59
2021/07/27 07:52:36;;;;;;;19.80;10.10;;;;;;;;;;4988689;28;20052;-58
2021/07/27 07:55:04;;;;;;;19.67;10.40;;;;;;;;;;4990686;28;20042;-57
2021/07/27 07:57:30;;;;;;;20.23;9.90;;;;;;;;;;4989868;28;20073;-57
2021/07/27 07:59:58;;;;;;;18.77;10.65;;;;;;;;;;4990648;28;20499;-57
2021/07/27 08:02:24;;;;;;;21.45;10.20;;;;;;;;;;4989552;28;20097;-54
2021/07/27 08:04:50;;;;;;;18.42;10.40;;;;;;;;;;4989464;28;20069;-58
2021/07/27 08:07:17;;;;;;;21.63;10.98;;;;;;;;;;4989514;28;20042;-56
2021/07/27 08:09:42;;;;;;;22.42;10.95;;;;;;;;;;4989039;28;20030;-56
2021/07/27 08:12:08;;;;;;;25.23;11.15;;;;;;;;;;4991663;28;20038;-57
2021/07/27 08:14:34;;;;;;;21.27;11.50;;;;;;;;;;4991207;28;20041;-58
2021/07/27 08:17:00;;;;;;;22.95;11.48;;;;;;;;;;4991270;28;20050;-58
2021/07/27 08:19:26;;;;;;;21.35;11.27;;;;;;;;;;4999214;28;20041;-58
2021/07/27 08:21:52;;;;;;;20.75;11.82;;;;;;;;;;5012319;28;20042;-56
2021/07/27 08:24:17;;;;;;;22.58;11.77;;;;;;;;;;5019342;28;20026;-58
2021/07/27 08:26:43;;;;;;;24.42;11.20;;;;;;;;;;5008898;28;20573;-58
2021/07/27 08:29:09;;;;;;;22.42;10.73;;;;;;;;;;5001842;28;20734;-56
2021/07/27 08:31:35;;;;;;;17.38;11.07;;;;;;;;;;4997358;28;20516;-57
2021/07/27 08:34:01;;;;;;;18.63;10.60;;;;;;;;;;4994548;28;20069;-58
2021/07/27 08:36:27;;;;;;;20.30;11.52;;;;;;;;;;5005421;28;22012;-58
2021/07/27 08:38:52;;;;;;;21.85;11.05;;;;;;;;;;4987826;28;20057;-57
2021/07/27 08:41:19;;;;;;;20.05;11.20;;;;;;;;;;4996096;28;20513;-58
2021/07/27 08:43:45;;;;;;;21.80;11.55;;;;;;;;;;4988263;28;20117;-58
2021/07/27 08:46:14;;;;;;;20.27;11.48;;;;;;;;;;4989563;28;20104;-59
2021/07/27 08:48:39;;;;;;;22.75;11.18;;;;;;;;;;4988626;28;20107;-58
2021/07/27 08:51:06;;;;;;;19.52;10.77;;;;;;;;;;5001804;28;20157;-59
2021/07/27 08:53:32;;;;;;;22.48;11.13;;;;;;;;;;4988623;28;20391;-58
2021/07/27 08:55:59;;;;;;;21.08;11.98;;;;;;;;;;4993080;28;20109;-58
2021/07/27 08:58:26;;;;;;;22.42;11.10;;;;;;;;;;4991587;28;20076;-56
2021/07/27 09:00:52;;;;;;;22.50;10.77;;;;;;;;;;4993655;28;20061;-58
2021/07/27 09:03:18;;;;;;;24.98;11.23;;;;;;;;;;4992208;28;20474;-56
2021/07/27 09:05:45;;;;;;;29.08;11.68;;;;;;;;;;4993046;28;20062;-58
2021/07/27 09:08:11;;;;;;;25.25;10.65;;;;;;;;;;4994196;28;20060;-58
2021/07/27 09:10:38;;;;;;;19.67;10.30;;;;;;;;;;4992186;28;20045;-57
2021/07/27 09:13:07;;;;;;;25.10;10.68;;;;;;;;;;4990024;28;20523;-57
2021/07/27 09:15:37;;;;;;;19.75;10.73;;;;;;;;;;4989749;28;20042;-58
2021/07/27 09:18:10;;;;;;;18.88;9.57;;;;;;;;;;4992149;28;20038;-58
2021/07/27 09:20:39;;;;;;;19.25;10.27;;;;;;;;;;4991742;28;20137;-57
2021/07/27 09:23:06;;;;;;;23.98;10.00;;;;;;;;;;4991519;28;20042;-58
2021/07/27 09:25:33;;;;;;;20.50;9.93;;;;;;;;;;4992812;28;20054;-58
2021/07/27 09:28:06;;;;;;;23.65;10.02;;;;;;;;;;4993294;28;20038;-58
2021/07/27 09:30:32;;;;;;;19.95;9.55;;;;;;;;;;4991916;28;20038;-56
2021/07/27 09:32:58;;;;;;;20.10;10.00;;;;;;;;;;4991699;28;20516;-58
2021/07/27 09:35:25;;;;;;;17.60;9.95;;;;;;;;;;4990514;28;20184;-57
2021/07/27 09:38:04;;;;;;;18.92;10.05;;;;;;;;;;5004864;28;20038;-58
2021/07/27 09:40:30;;;;;;;17.92;10.20;;;;;;;;;;4990317;28;20042;-57
2021/07/27 09:42:57;;;;;;;26.45;10.43;;;;;;;;;;4991195;28;20034;-57
2021/07/27 09:45:24;;;;;;;19.27;10.07;;;;;;;;;;4990846;28;20038;-58
2021/07/27 09:47:51;;;;;;;20.10;10.23;;;;;;;;;;4993556;28;20065;-58
2021/07/27 09:50:17;;;;;;;17.58;9.88;;;;;;;;;;4992197;28;20109;-58
2021/07/27 09:52:46;;;;;;;19.63;10.15;;;;;;;;;;4990154;28;20057;-58
2021/07/27 09:55:13;;;;;;;18.00;10.35;;;;;;;;;;4991712;28;20049;-58
2021/07/27 09:57:38;;;;;;;22.05;10.48;;;;;;;;;;4990189;28;20522;-57
2021/07/27 10:00:05;;;;;;;20.05;10.88;;;;;;;;;;4992776;28;20037;-55
2021/07/27 10:02:32;;;;;;;22.98;9.50;;;;;;;;;;4989434;28;20048;-57
2021/07/27 10:04:58;;;;;;;21.90;10.07;;;;;;;;;;4992298;28;20061;-57
2021/07/27 10:07:28;;;;;;;22.67;10.20;;;;;;;;;;4991390;28;20043;-57
2021/07/27 10:10:04;;;;;;;22.70;9.48;;;;;;;;;;4992582;28;20046;-56
2021/07/27 10:12:33;;;;;;;19.38;9.95;;;;;;;;;;4990436;28;20046;-56
2021/07/27 10:15:08;;;;;;;24.17;9.30;;;;;;;;;;4991430;28;20081;-56
2021/07/27 10:17:34;;;;;;;17.50;9.50;;;;;;;;;;4989999;28;20117;-57
2021/07/27 10:20:00;;;;;;;21.02;10.07;;;;;;;;;;4989092;28;20046;-57
2021/07/27 10:22:32;;;;;;;16.88;10.10;;;;;;;;;;4988385;28;20037;-57
2021/07/27 10:24:58;;;;;;;21.67;10.00;;;;;;;;;;4992495;28;20444;-57
2021/07/27 10:27:29;;;;;;;21.92;10.50;;;;;;;;;;4991581;28;20050;-58
2021/07/27 10:30:05;;;;;;;23.85;9.65;;;;;;;;;;4991474;28;20078;-57
2021/07/27 10:32:31;;;;;;;22.88;9.95;;;;;;;;;;4990403;28;20046;-57
2021/07/27 10:34:57;;;;;;;21.45;10.07;;;;;;;;;;4993338;28;20045;-57
2021/07/27 10:37:22;;;;;;;23.35;10.52;;;;;;;;;;4991935;28;20034;-56
2021/07/27 10:39:57;;;;;;;27.40;10.30;;;;;;;;;;4996057;28;20072;-57
2021/07/27 10:42:24;;;;;;;24.08;10.00;;;;;;;;;;4996317;28;20137;-56
2021/07/27 10:44:51;;;;;;;26.00;9.65;;;;;;;;;;4995670;28;20105;-56
2021/07/27 10:47:23;;;;;;;23.08;9.70;;;;;;;;;;4998188;28;20116;-56
2021/07/27 10:50:03;;;;;;;19.08;10.52;;;;;;;;;;4995349;28;20048;-57
2021/07/27 10:52:29;;;;;;;21.55;10.70;;;;;;;;;;4990903;28;20045;-56
2021/07/27 10:54:59;;;;;;;23.60;10.57;;;;;;;;;;4992638;28;20406;-56
2021/07/27 10:57:34;;;;;;;21.27;10.88;;;;;;;;;;4991469;28;20041;-56
2021/07/27 11:00:01;;;;;;;27.60;11.57;;;;;;;;;;4990236;28;20045;-56
2021/07/27 11:02:27;;;;;;;23.20;10.00;;;;;;;;;;4989137;28;20038;-57
2021/07/27 11:04:53;;;;;;;24.50;10.48;;;;;;;;;;4990883;28;20154;-57
2021/07/27 11:07:19;;;;;;;21.80;9.63;;;;;;;;;;4989652;28;20099;-58
2021/07/27 11:09:52;;;;;;;22.70;10.23;;;;;;;;;;4991745;28;20101;-57
2021/07/27 11:12:28;;;;;;;21.90;10.20;;;;;;;;;;4988500;28;20104;-57
2021/07/27 11:15:07;;;;;;;24.10;10.57;;;;;;;;;;4991585;28;20980;-58
2021/07/27 11:17:33;;;;;;;22.08;10.20;;;;;;;;;;4992340;28;20042;-57
2021/07/27 11:19:59;;;;;;;26.60;11.88;;;;;;;;;;4993189;28;20041;-57
2021/07/27 11:22:25;;;;;;;22.70;10.18;;;;;;;;;;4991874;28;20042;-56
2021/07/27 11:24:53;;;;;;;24.88;9.75;;;;;;;;;;4992577;28;20161;-57
2021/07/27 11:27:23;;;;;;;22.52;10.85;;;;;;;;;;4990500;28;20081;-57
2021/07/27 11:29:58;;;;;;;22.02;9.95;;;;;;;;;;4991835;28;20598;-56
2021/07/27 11:32:26;;;;;;;39.28;11.32;;;;;;;;;;4992413;28;20036;-56
2021/07/27 11:34:56;;;;;;;25.20;10.45;;;;;;;;;;4994266;28;20088;-57
2021/07/27 11:37:26;;;;;;;20.45;9.88;;;;;;;;;;4991797;28;20053;-55
2021/07/27 11:40:01;;;;;;;27.35;10.90;;;;;;;;;;5091747;27;20901;-57
2021/07/27 11:42:30;;;;;;;29.92;11.48;;;;;;;;;;5083975;28;20043;-59
2021/07/27 11:44:59;;;;;;;25.15;10.07;;;;;;;;;;5076575;27;20039;-59
2021/07/27 11:47:25;;;;;;;21.33;10.43;;;;;;;;;;5073214;27;20260;-59
2021/07/27 11:49:55;;;;;;;22.23;9.52;;;;;;;;;;5074360;28;20036;-60
2021/07/27 11:52:26;;;;;;;21.58;9.93;;;;;;;;;;5079222;27;20492;-58
2021/07/27 11:54:59;;;;;;;30.73;11.20;;;;;;;;;;5072207;28;20044;-59
2021/07/27 11:57:25;;;;;;;22.02;10.57;;;;;;;;;;5072054;27;20951;-57
2021/07/27 11:59:50;;;;;;;21.27;10.52;;;;;;;;;;5069121;28;20110;-59
2021/07/27 12:02:16;;;;;;;23.10;10.18;;;;;;;;;;5070913;27;20490;-58
2021/07/27 12:04:42;;;;;;;25.13;11.50;;;;;;;;;;5075595;28;20040;-56
2021/07/27 12:07:08;;;;;;;22.95;10.70;;;;;;;;;;5083379;28;20039;-59
2021/07/27 12:09:34;;;;;;;19.48;10.40;;;;;;;;;;5088781;27;20054;-60
2021/07/27 12:12:02;;;;;;;24.33;10.65;;;;;;;;;;5070467;28;20048;-57
2021/07/27 12:14:28;;;;;;;27.90;10.80;;;;;;;;;;5071170;28;20383;-59
2021/07/27 12:16:53;;;;;;;25.10;10.57;;;;;;;;;;5070984;28;20064;-57
2021/07/27 12:19:19;;;;;;;23.75;10.57;;;;;;;;;;5069150;28;20044;-60
2021/07/27 12:21:45;;;;;;;25.38;10.23;;;;;;;;;;5070602;28;20135;-57
2021/07/27 12:24:11;;;;;;;18.50;10.38;;;;;;;;;;5070407;28;20047;-58
2021/07/27 12:26:38;;;;;;;25.60;11.40;;;;;;;;;;5070423;28;20040;-58
2021/07/27 12:29:04;;;;;;;23.42;10.57;;;;;;;;;;5070393;28;20131;-59
2021/07/27 12:31:30;;;;;;;25.08;10.82;;;;;;;;;;5071082;28;20063;-58
2021/07/27 12:34:15;;;;;;;29.55;11.40;;;;;;;;;;5050577;28;20041;-58
2021/07/27 12:36:41;;;;;;;22.48;10.50;;;;;;;;;;5051739;28;20114;-59
2021/07/27 12:39:07;;;;;;;28.67;12.00;;;;;;;;;;5051438;28;20056;-60
2021/07/27 12:41:33;;;;;;;24.60;11.23;;;;;;;;;;5052086;28;20044;-61
2021/07/27 12:43:59;;;;;;;27.65;12.13;;;;;;;;;;5052366;28;20025;-58
2021/07/27 12:46:25;;;;;;;19.23;11.45;;;;;;;;;;5050929;28;20040;-59
2021/07/27 12:48:51;;;;;;;25.40;12.10;;;;;;;;;;5051930;28;20048;-60
2021/07/27 12:51:17;;;;;;;24.90;12.13;;;;;;;;;;5039111;28;21014;-59
2021/07/27 12:53:44;;;;;;;24.42;12.23;;;;;;;;;;5037958;28;20128;-60
2021/07/27 12:56:13;;;;;;;24.20;13.02;;;;;;;;;;5041809;28;20522;-60
2021/07/27 12:58:39;;;;;;;22.35;11.82;;;;;;;;;;5038172;28;20053;-60
2021/07/27 13:01:05;;;;;;;22.00;10.13;;;;;;;;;;5038259;28;20029;-59
2021/07/27 13:03:30;;;;;;;20.67;9.43;;;;;;;;;;5038248;28;20131;-61
2021/07/27 13:05:56;;;;;;;24.77;10.13;;;;;;;;;;5031281;28;20037;-60
2021/07/27 13:08:22;;;;;;;17.65;9.95;;;;;;;;;;5038232;28;20103;-61
2021/07/27 13:10:49;;;;;;;20.92;11.18;;;;;;;;;;5037596;28;20124;-60
2021/07/27 13:13:18;;;;;;;21.95;12.32;;;;;;;;;;5055442;28;20048;-59
2021/07/27 13:15:44;;;;;;;26.48;12.57;;;;;;;;;;5056398;28;20036;-59
2021/07/27 13:18:09;;;;;;;23.25;11.52;;;;;;;;;;5056490;28;20293;-58
2021/07/27 13:20:35;;;;;;;24.50;12.43;;;;;;;;;;5055872;28;20139;-59
2021/07/27 13:23:01;;;;;;;20.65;11.50;;;;;;;;;;5057767;28;20028;-59
2021/07/27 13:25:27;;;;;;;25.15;12.57;;;;;;;;;;5057190;28;20063;-59
2021/07/27 13:27:56;;;;;;;22.17;12.00;;;;;;;;;;5055734;28;20040;-59
2021/07/27 13:30:23;;;;;;;21.50;11.50;;;;;;;;;;5055651;28;20455;-61
2021/07/27 13:32:49;;;;;;;19.58;11.10;;;;;;;;;;5053795;28;20821;-62
2021/07/27 13:35:15;;;;;;;19.23;11.10;;;;;;;;;;5056474;28;20050;-59
2021/07/27 13:37:41;;;;;;;18.35;10.10;;;;;;;;;;5055757;28;20044;-58
2021/07/27 13:40:08;;;;;;;24.60;10.20;;;;;;;;;;5056196;28;20769;-60
2021/07/27 13:42:34;;;;;;;20.00;10.73;;;;;;;;;;5054127;28;20040;-61
2021/07/27 13:45:00;;;;;;;16.02;8.20;;;;;;;;;;5056529;28;20037;-59
2021/07/27 13:47:26;;;;;;;21.38;11.77;;;;;;;;;;5036428;28;20040;-59
2021/07/27 13:49:53;;;;;;;21.38;10.00;;;;;;;;;;5056162;28;20052;-59
2021/07/27 13:52:19;;;;;;;20.38;10.73;;;;;;;;;;5054581;28;20041;-60
2021/07/27 13:54:44;;;;;;;21.63;10.65;;;;;;;;;;5056328;28;20060;-61
2021/07/27 13:57:10;;;;;;;19.02;10.52;;;;;;;;;;5055135;28;20509;-58
2021/07/27 13:59:36;;;;;;;22.02;12.20;;;;;;;;;;5055821;28;20044;-59
2021/07/27 14:02:02;;;;;;;20.23;11.57;;;;;;;;;;5052375;28;20147;-59
2021/07/27 14:04:31;;;;;;;23.63;10.65;;;;;;;;;;5073880;28;20047;-61
2021/07/27 14:07:00;;;;;;;18.17;9.95;;;;;;;;;;5077072;28;20032;-61
2021/07/27 14:09:27;;;;;;;23.15;10.70;;;;;;;;;;5058073;28;20066;-61
2021/07/27 14:11:53;;;;;;;18.83;10.88;;;;;;;;;;5055496;28;20033;-58
2021/07/27 14:14:18;;;;;;;19.52;10.23;;;;;;;;;;5055536;28;20044;-59
2021/07/27 14:16:44;;;;;;;18.17;9.43;;;;;;;;;;5064987;28;20040;-59
2021/07/27 14:19:10;;;;;;;14.82;6.53;;;;;;;;;;5054554;28;20067;-60
2021/07/27 14:21:36;;;;;;;16.63;9.15;;;;;;;;;;5055697;28;21958;-57
2021/07/27 14:24:02;;;;;;;17.15;9.32;;;;;;;;;;5054716;28;20037;-56
2021/07/27 14:26:28;;;;;;;18.63;8.15;;;;;;;;;;5056969;28;20102;-58
2021/07/27 14:28:54;;;;;;;18.55;9.80;;;;;;;;;;5057883;28;20060;-56
2021/07/27 14:31:20;;;;;;;20.95;8.93;;;;;;;;;;5054569;28;20119;-57
2021/07/27 14:33:46;;;;;;;17.85;7.15;;;;;;;;;;5057311;28;20044;-57
2021/07/27 14:36:12;;;;;;;20.23;9.00;;;;;;;;;;5055572;28;20646;-58
2021/07/27 14:38:38;;;;;;;16.45;9.25;;;;;;;;;;5056957;28;20052;-57
2021/07/27 14:41:03;;;;;;;14.00;6.95;;;;;;;;;;5057408;28;20036;-57
2021/07/27 14:43:29;;;;;;;19.17;7.57;;;;;;;;;;5053657;28;20149;-57
2021/07/27 14:45:55;;;;;;;15.55;7.13;;;;;;;;;;5054507;28;20068;-58
2021/07/27 14:48:21;;;;;;;13.68;6.70;;;;;;;;;;5054977;28;20036;-57
2021/07/27 14:50:47;;;;;;;20.65;7.97;;;;;;;;;;5055610;28;20098;-55
2021/07/27 14:53:13;;;;;;;16.45;7.35;;;;;;;;;;5054956;28;20172;-57